sensor_id;sensor_type;location;lat;lon;timestamp;P1;durP1;ratioP1;P2;durP2;ratioP2
76475;SDS011;65308;50.078;14.854;2023-08-17T00:01:15;6.85;;;4.82;;
76475;SDS011;65308;50.078;14.854;2023-08-17T00:03:42;7.78;;;5.05;;
76475;SDS011;65308;50.078;14.854;2023-08-17T00:06:08;6.22;;;4.53;;
76475;SDS011;65308;50.078;14.854;2023-08-17T00:08:36;6.88;;;5.25;;
76475;SDS011;65308;50.078;14.854;2023-08-17T00:11:07;6.40;;;4.88;;
76475;SDS011;65308;50.078;14.854;2023-08-17T00:13:34;7.55;;;5.07;;
76475;SDS011;65308;50.078;14.854;2023-08-17T00:16:00;6.75;;;4.70;;
76475;SDS011;65308;50.078;14.854;2023-08-17T00:18:27;6.75;;;5.22;;
76475;SDS011;65308;50.078;14.854;2023-08-17T00:20:54;8.50;;;6.00;;
76475;SDS011;65308;50.078;14.854;2023-08-17T00:23:21;7.30;;;5.25;;
76475;SDS011;65308;50.078;14.854;2023-08-17T00:25:48;7.97;;;5.50;;
76475;SDS011;65308;50.078;14.854;2023-08-17T00:28:16;6.70;;;4.95;;
76475;SDS011;65308;50.078;14.854;2023-08-17T00:30:42;7.22;;;5.25;;
76475;SDS011;65308;50.078;14.854;2023-08-17T00:33:09;8.70;;;5.47;;
76475;SDS011;65308;50.078;14.854;2023-08-17T00:35:36;8.07;;;5.68;;
76475;SDS011;65308;50.078;14.854;2023-08-17T00:38:02;6.95;;;5.07;;
76475;SDS011;65308;50.078;14.854;2023-08-17T00:40:29;7.35;;;5.25;;
76475;SDS011;65308;50.078;14.854;2023-08-17T00:42:56;9.00;;;5.60;;
76475;SDS011;65308;50.078;14.854;2023-08-17T00:45:24;9.77;;;5.63;;
76475;SDS011;65308;50.078;14.854;2023-08-17T00:47:53;7.82;;;5.93;;
76475;SDS011;65308;50.078;14.854;2023-08-17T00:50:22;8.25;;;6.38;;
76475;SDS011;65308;50.078;14.854;2023-08-17T00:52:49;8.20;;;5.90;;
76475;SDS011;65308;50.078;14.854;2023-08-17T00:55:18;9.82;;;5.90;;
76475;SDS011;65308;50.078;14.854;2023-08-17T00:57:46;7.85;;;4.78;;
76475;SDS011;65308;50.078;14.854;2023-08-17T01:00:13;7.03;;;5.57;;
76475;SDS011;65308;50.078;14.854;2023-08-17T01:02:42;8.38;;;5.70;;
76475;SDS011;65308;50.078;14.854;2023-08-17T01:05:09;6.10;;;4.90;;
76475;SDS011;65308;50.078;14.854;2023-08-17T01:07:36;6.88;;;5.32;;
76475;SDS011;65308;50.078;14.854;2023-08-17T01:10:03;10.10;;;5.07;;
76475;SDS011;65308;50.078;14.854;2023-08-17T01:12:32;7.32;;;5.35;;
76475;SDS011;65308;50.078;14.854;2023-08-17T01:15:05;6.90;;;5.40;;
76475;SDS011;65308;50.078;14.854;2023-08-17T01:20:10;7.40;;;5.30;;
76475;SDS011;65308;50.078;14.854;2023-08-17T01:22:40;7.65;;;5.32;;
76475;SDS011;65308;50.078;14.854;2023-08-17T01:25:09;9.48;;;5.88;;
76475;SDS011;65308;50.078;14.854;2023-08-17T01:27:36;7.55;;;6.00;;
76475;SDS011;65308;50.078;14.854;2023-08-17T01:30:06;7.95;;;5.28;;
76475;SDS011;65308;50.078;14.854;2023-08-17T01:32:35;7.70;;;5.00;;
76475;SDS011;65308;50.078;14.854;2023-08-17T01:35:08;8.23;;;6.13;;
76475;SDS011;65308;50.078;14.854;2023-08-17T01:37:40;7.88;;;5.80;;
76475;SDS011;65308;50.078;14.854;2023-08-17T01:40:10;8.80;;;5.75;;
76475;SDS011;65308;50.078;14.854;2023-08-17T01:42:40;9.52;;;5.75;;
76475;SDS011;65308;50.078;14.854;2023-08-17T01:45:08;7.25;;;5.43;;
76475;SDS011;65308;50.078;14.854;2023-08-17T01:50:02;9.15;;;5.35;;
76475;SDS011;65308;50.078;14.854;2023-08-17T01:52:29;8.73;;;5.55;;
76475;SDS011;65308;50.078;14.854;2023-08-17T01:54:55;7.78;;;5.70;;
76475;SDS011;65308;50.078;14.854;2023-08-17T01:57:24;9.25;;;6.32;;
76475;SDS011;65308;50.078;14.854;2023-08-17T01:59:50;7.68;;;5.50;;
76475;SDS011;65308;50.078;14.854;2023-08-17T02:02:17;8.30;;;5.90;;
76475;SDS011;65308;50.078;14.854;2023-08-17T02:04:46;9.73;;;7.57;;
76475;SDS011;65308;50.078;14.854;2023-08-17T02:07:13;8.20;;;5.18;;
76475;SDS011;65308;50.078;14.854;2023-08-17T02:09:39;9.13;;;6.05;;
76475;SDS011;65308;50.078;14.854;2023-08-17T02:12:06;7.97;;;5.63;;
76475;SDS011;65308;50.078;14.854;2023-08-17T02:14:35;10.63;;;7.07;;
76475;SDS011;65308;50.078;14.854;2023-08-17T02:17:02;8.80;;;6.50;;
76475;SDS011;65308;50.078;14.854;2023-08-17T02:19:30;10.45;;;6.32;;
76475;SDS011;65308;50.078;14.854;2023-08-17T02:21:57;10.55;;;7.57;;
76475;SDS011;65308;50.078;14.854;2023-08-17T02:24:24;10.48;;;7.82;;
76475;SDS011;65308;50.078;14.854;2023-08-17T02:26:51;9.85;;;7.65;;
76475;SDS011;65308;50.078;14.854;2023-08-17T02:29:18;13.90;;;8.13;;
76475;SDS011;65308;50.078;14.854;2023-08-17T02:31:47;10.50;;;6.85;;
76475;SDS011;65308;50.078;14.854;2023-08-17T02:34:13;9.00;;;6.82;;
76475;SDS011;65308;50.078;14.854;2023-08-17T02:36:41;12.35;;;7.32;;
76475;SDS011;65308;50.078;14.854;2023-08-17T02:39:07;10.95;;;7.22;;
76475;SDS011;65308;50.078;14.854;2023-08-17T02:41:34;12.68;;;7.93;;
76475;SDS011;65308;50.078;14.854;2023-08-17T02:44:01;10.55;;;5.95;;
76475;SDS011;65308;50.078;14.854;2023-08-17T02:46:27;9.73;;;7.07;;
76475;SDS011;65308;50.078;14.854;2023-08-17T02:48:56;12.57;;;8.23;;
76475;SDS011;65308;50.078;14.854;2023-08-17T02:51:22;8.57;;;6.60;;
76475;SDS011;65308;50.078;14.854;2023-08-17T02:53:49;8.68;;;6.20;;
76475;SDS011;65308;50.078;14.854;2023-08-17T02:56:16;8.65;;;6.55;;
76475;SDS011;65308;50.078;14.854;2023-08-17T02:58:43;9.05;;;6.97;;
76475;SDS011;65308;50.078;14.854;2023-08-17T03:01:10;10.23;;;7.00;;
76475;SDS011;65308;50.078;14.854;2023-08-17T03:03:37;9.02;;;7.10;;
76475;SDS011;65308;50.078;14.854;2023-08-17T03:06:06;8.30;;;6.70;;
76475;SDS011;65308;50.078;14.854;2023-08-17T03:08:34;9.73;;;6.35;;
76475;SDS011;65308;50.078;14.854;2023-08-17T03:11:01;10.18;;;6.82;;
76475;SDS011;65308;50.078;14.854;2023-08-17T03:13:28;12.10;;;7.55;;
76475;SDS011;65308;50.078;14.854;2023-08-17T03:15:54;9.32;;;6.93;;
76475;SDS011;65308;50.078;14.854;2023-08-17T03:18:21;10.48;;;6.53;;
76475;SDS011;65308;50.078;14.854;2023-08-17T03:20:48;9.57;;;6.80;;
76475;SDS011;65308;50.078;14.854;2023-08-17T03:23:16;12.77;;;7.28;;
76475;SDS011;65308;50.078;14.854;2023-08-17T03:25:43;10.32;;;6.78;;
76475;SDS011;65308;50.078;14.854;2023-08-17T03:28:10;11.55;;;7.63;;
76475;SDS011;65308;50.078;14.854;2023-08-17T03:30:38;10.02;;;6.43;;
76475;SDS011;65308;50.078;14.854;2023-08-17T03:33:05;9.82;;;6.45;;
76475;SDS011;65308;50.078;14.854;2023-08-17T03:35:31;10.88;;;6.00;;
76475;SDS011;65308;50.078;14.854;2023-08-17T03:37:58;10.10;;;7.53;;
76475;SDS011;65308;50.078;14.854;2023-08-17T03:40:27;11.15;;;6.60;;
76475;SDS011;65308;50.078;14.854;2023-08-17T03:42:53;13.27;;;8.27;;
76475;SDS011;65308;50.078;14.854;2023-08-17T03:45:20;11.07;;;7.38;;
76475;SDS011;65308;50.078;14.854;2023-08-17T03:47:47;9.93;;;6.45;;
76475;SDS011;65308;50.078;14.854;2023-08-17T03:50:14;9.70;;;7.03;;
76475;SDS011;65308;50.078;14.854;2023-08-17T03:52:40;8.98;;;6.03;;
76475;SDS011;65308;50.078;14.854;2023-08-17T03:55:07;9.77;;;6.88;;
76475;SDS011;65308;50.078;14.854;2023-08-17T03:57:35;10.27;;;6.15;;
76475;SDS011;65308;50.078;14.854;2023-08-17T04:00:03;9.65;;;6.40;;
76475;SDS011;65308;50.078;14.854;2023-08-17T04:02:31;9.32;;;5.60;;
76475;SDS011;65308;50.078;14.854;2023-08-17T04:04:58;7.78;;;6.03;;
76475;SDS011;65308;50.078;14.854;2023-08-17T04:07:24;10.45;;;6.00;;
76475;SDS011;65308;50.078;14.854;2023-08-17T04:09:51;8.82;;;6.45;;
76475;SDS011;65308;50.078;14.854;2023-08-17T04:12:17;8.95;;;6.10;;
76475;SDS011;65308;50.078;14.854;2023-08-17T04:14:45;8.68;;;6.10;;
76475;SDS011;65308;50.078;14.854;2023-08-17T04:17:12;9.60;;;6.82;;
76475;SDS011;65308;50.078;14.854;2023-08-17T04:19:39;8.60;;;5.63;;
76475;SDS011;65308;50.078;14.854;2023-08-17T04:22:05;9.98;;;6.43;;
76475;SDS011;65308;50.078;14.854;2023-08-17T04:24:32;10.50;;;6.95;;
76475;SDS011;65308;50.078;14.854;2023-08-17T04:26:59;9.80;;;6.82;;
76475;SDS011;65308;50.078;14.854;2023-08-17T04:29:26;10.18;;;6.80;;
76475;SDS011;65308;50.078;14.854;2023-08-17T04:31:54;11.35;;;7.25;;
76475;SDS011;65308;50.078;14.854;2023-08-17T04:34:21;11.02;;;7.30;;
76475;SDS011;65308;50.078;14.854;2023-08-17T04:36:48;9.73;;;6.47;;
76475;SDS011;65308;50.078;14.854;2023-08-17T04:39:15;9.35;;;6.50;;
76475;SDS011;65308;50.078;14.854;2023-08-17T04:41:42;10.57;;;7.32;;
76475;SDS011;65308;50.078;14.854;2023-08-17T04:44:10;9.38;;;7.03;;
76475;SDS011;65308;50.078;14.854;2023-08-17T04:46:37;8.15;;;5.97;;
76475;SDS011;65308;50.078;14.854;2023-08-17T04:49:05;8.07;;;5.57;;
76475;SDS011;65308;50.078;14.854;2023-08-17T04:51:32;9.80;;;7.13;;
76475;SDS011;65308;50.078;14.854;2023-08-17T04:53:58;10.20;;;7.20;;
76475;SDS011;65308;50.078;14.854;2023-08-17T04:56:25;9.93;;;7.63;;
76475;SDS011;65308;50.078;14.854;2023-08-17T04:58:53;11.73;;;7.50;;
76475;SDS011;65308;50.078;14.854;2023-08-17T05:01:19;10.70;;;8.07;;
76475;SDS011;65308;50.078;14.854;2023-08-17T05:03:57;10.60;;;7.22;;
76475;SDS011;65308;50.078;14.854;2023-08-17T05:06:27;9.63;;;6.95;;
76475;SDS011;65308;50.078;14.854;2023-08-17T05:08:54;10.20;;;7.88;;
76475;SDS011;65308;50.078;14.854;2023-08-17T05:11:20;11.88;;;7.22;;
76475;SDS011;65308;50.078;14.854;2023-08-17T05:13:47;12.18;;;8.57;;
76475;SDS011;65308;50.078;14.854;2023-08-17T05:16:15;12.95;;;9.52;;
76475;SDS011;65308;50.078;14.854;2023-08-17T05:18:41;12.25;;;8.23;;
76475;SDS011;65308;50.078;14.854;2023-08-17T05:21:12;12.10;;;8.30;;
76475;SDS011;65308;50.078;14.854;2023-08-17T05:23:40;10.88;;;8.00;;
76475;SDS011;65308;50.078;14.854;2023-08-17T05:26:07;11.82;;;8.63;;
76475;SDS011;65308;50.078;14.854;2023-08-17T05:28:33;11.60;;;8.05;;
76475;SDS011;65308;50.078;14.854;2023-08-17T05:31:04;12.40;;;8.75;;
76475;SDS011;65308;50.078;14.854;2023-08-17T05:33:31;10.57;;;8.40;;
76475;SDS011;65308;50.078;14.854;2023-08-17T05:35:58;10.13;;;7.95;;
76475;SDS011;65308;50.078;14.854;2023-08-17T05:38:24;10.13;;;8.55;;
76475;SDS011;65308;50.078;14.854;2023-08-17T05:40:55;11.05;;;8.25;;
76475;SDS011;65308;50.078;14.854;2023-08-17T05:43:22;11.38;;;8.77;;
76475;SDS011;65308;50.078;14.854;2023-08-17T05:45:49;9.63;;;8.30;;
76475;SDS011;65308;50.078;14.854;2023-08-17T05:48:18;11.15;;;8.77;;
76475;SDS011;65308;50.078;14.854;2023-08-17T05:50:46;9.98;;;8.43;;
76475;SDS011;65308;50.078;14.854;2023-08-17T05:53:17;10.32;;;9.00;;
76475;SDS011;65308;50.078;14.854;2023-08-17T05:55:48;11.35;;;9.48;;
76475;SDS011;65308;50.078;14.854;2023-08-17T05:58:17;12.10;;;9.20;;
76475;SDS011;65308;50.078;14.854;2023-08-17T06:00:44;13.18;;;9.13;;
76475;SDS011;65308;50.078;14.854;2023-08-17T06:03:12;12.80;;;10.18;;
76475;SDS011;65308;50.078;14.854;2023-08-17T06:05:39;10.50;;;9.40;;
76475;SDS011;65308;50.078;14.854;2023-08-17T06:08:06;11.18;;;10.02;;
76475;SDS011;65308;50.078;14.854;2023-08-17T06:10:32;14.75;;;10.27;;
76475;SDS011;65308;50.078;14.854;2023-08-17T06:13:02;11.98;;;10.63;;
76475;SDS011;65308;50.078;14.854;2023-08-17T06:15:31;10.43;;;9.32;;
76475;SDS011;65308;50.078;14.854;2023-08-17T06:17:57;11.38;;;10.18;;
76475;SDS011;65308;50.078;14.854;2023-08-17T06:20:24;11.20;;;10.10;;
76475;SDS011;65308;50.078;14.854;2023-08-17T06:22:50;11.65;;;10.43;;
76475;SDS011;65308;50.078;14.854;2023-08-17T06:25:17;11.50;;;10.25;;
76475;SDS011;65308;50.078;14.854;2023-08-17T06:27:44;12.10;;;10.48;;
76475;SDS011;65308;50.078;14.854;2023-08-17T06:30:11;11.32;;;10.20;;
76475;SDS011;65308;50.078;14.854;2023-08-17T06:32:42;11.18;;;10.07;;
76475;SDS011;65308;50.078;14.854;2023-08-17T06:35:08;11.77;;;10.25;;
76475;SDS011;65308;50.078;14.854;2023-08-17T06:37:36;12.05;;;11.05;;
76475;SDS011;65308;50.078;14.854;2023-08-17T06:40:03;15.63;;;14.30;;
76475;SDS011;65308;50.078;14.854;2023-08-17T06:42:32;12.40;;;11.30;;
76475;SDS011;65308;50.078;14.854;2023-08-17T06:44:59;12.50;;;11.35;;
76475;SDS011;65308;50.078;14.854;2023-08-17T06:47:26;10.90;;;10.00;;
76475;SDS011;65308;50.078;14.854;2023-08-17T06:49:54;12.13;;;10.93;;
76475;SDS011;65308;50.078;14.854;2023-08-17T06:52:22;11.23;;;10.23;;
76475;SDS011;65308;50.078;14.854;2023-08-17T06:54:50;12.55;;;10.35;;
76475;SDS011;65308;50.078;14.854;2023-08-17T06:57:16;11.68;;;10.57;;
76475;SDS011;65308;50.078;14.854;2023-08-17T06:59:44;11.23;;;10.13;;
76475;SDS011;65308;50.078;14.854;2023-08-17T07:02:11;12.00;;;10.90;;
76475;SDS011;65308;50.078;14.854;2023-08-17T07:04:38;11.57;;;10.45;;
76475;SDS011;65308;50.078;14.854;2023-08-17T07:07:08;21.40;;;12.40;;
76475;SDS011;65308;50.078;14.854;2023-08-17T07:09:35;11.63;;;10.50;;
76475;SDS011;65308;50.078;14.854;2023-08-17T07:12:01;13.32;;;12.00;;
76475;SDS011;65308;50.078;14.854;2023-08-17T07:14:28;13.40;;;11.20;;
76475;SDS011;65308;50.078;14.854;2023-08-17T07:16:55;11.95;;;10.95;;
76475;SDS011;65308;50.078;14.854;2023-08-17T07:19:23;13.02;;;11.20;;
76475;SDS011;65308;50.078;14.854;2023-08-17T07:21:51;12.75;;;11.55;;
76475;SDS011;65308;50.078;14.854;2023-08-17T07:24:19;13.98;;;12.45;;
76475;SDS011;65308;50.078;14.854;2023-08-17T07:26:46;11.52;;;10.45;;
76475;SDS011;65308;50.078;14.854;2023-08-17T07:31:39;13.85;;;12.68;;
76475;SDS011;65308;50.078;14.854;2023-08-17T07:34:06;12.18;;;11.00;;
76475;SDS011;65308;50.078;14.854;2023-08-17T07:36:33;12.68;;;11.65;;
76475;SDS011;65308;50.078;14.854;2023-08-17T07:39:00;14.38;;;12.98;;
76475;SDS011;65308;50.078;14.854;2023-08-17T07:41:28;13.68;;;12.77;;
76475;SDS011;65308;50.078;14.854;2023-08-17T07:43:55;14.90;;;13.55;;
76475;SDS011;65308;50.078;14.854;2023-08-17T07:46:22;14.73;;;13.63;;
76475;SDS011;65308;50.078;14.854;2023-08-17T07:48:48;15.57;;;14.35;;
76475;SDS011;65308;50.078;14.854;2023-08-17T07:51:15;15.80;;;14.65;;
76475;SDS011;65308;50.078;14.854;2023-08-17T07:56:08;19.83;;;18.58;;
76475;SDS011;65308;50.078;14.854;2023-08-17T07:58:36;25.77;;;24.35;;
76475;SDS011;65308;50.078;14.854;2023-08-17T08:01:03;23.92;;;22.50;;
76475;SDS011;65308;50.078;14.854;2023-08-17T08:03:30;24.13;;;22.70;;
76475;SDS011;65308;50.078;14.854;2023-08-17T08:08:23;22.27;;;21.02;;
76475;SDS011;65308;50.078;14.854;2023-08-17T08:10:52;24.27;;;22.63;;
76475;SDS011;65308;50.078;14.854;2023-08-17T08:13:19;25.70;;;23.83;;
76475;SDS011;65308;50.078;14.854;2023-08-17T08:15:47;22.15;;;20.63;;
76475;SDS011;65308;50.078;14.854;2023-08-17T08:18:14;21.88;;;20.45;;
76475;SDS011;65308;50.078;14.854;2023-08-17T08:20:41;23.33;;;21.92;;
76475;SDS011;65308;50.078;14.854;2023-08-17T08:23:08;20.30;;;19.10;;
76475;SDS011;65308;50.078;14.854;2023-08-17T08:25:35;25.13;;;23.63;;
76475;SDS011;65308;50.078;14.854;2023-08-17T08:28:02;24.90;;;23.30;;
76475;SDS011;65308;50.078;14.854;2023-08-17T08:30:29;27.90;;;26.45;;
76475;SDS011;65308;50.078;14.854;2023-08-17T08:32:57;38.13;;;36.13;;
76475;SDS011;65308;50.078;14.854;2023-08-17T08:35:25;29.13;;;27.38;;
76475;SDS011;65308;50.078;14.854;2023-08-17T08:37:55;25.23;;;23.65;;
76475;SDS011;65308;50.078;14.854;2023-08-17T08:40:26;25.30;;;23.90;;
76475;SDS011;65308;50.078;14.854;2023-08-17T08:42:55;20.63;;;19.38;;
76475;SDS011;65308;50.078;14.854;2023-08-17T08:45:30;18.83;;;17.45;;
76475;SDS011;65308;50.078;14.854;2023-08-17T08:47:59;20.00;;;18.70;;
76475;SDS011;65308;50.078;14.854;2023-08-17T08:50:28;16.95;;;15.65;;
76475;SDS011;65308;50.078;14.854;2023-08-17T08:52:58;14.57;;;13.48;;
76475;SDS011;65308;50.078;14.854;2023-08-17T08:55:27;13.82;;;12.60;;
76475;SDS011;65308;50.078;14.854;2023-08-17T08:57:56;14.90;;;13.60;;
76475;SDS011;65308;50.078;14.854;2023-08-17T09:00:24;16.63;;;15.38;;
76475;SDS011;65308;50.078;14.854;2023-08-17T09:02:51;17.05;;;15.75;;
76475;SDS011;65308;50.078;14.854;2023-08-17T09:05:20;15.27;;;14.00;;
76475;SDS011;65308;50.078;14.854;2023-08-17T09:07:48;18.35;;;16.95;;
76475;SDS011;65308;50.078;14.854;2023-08-17T09:10:15;21.35;;;19.95;;
76475;SDS011;65308;50.078;14.854;2023-08-17T09:15:09;16.25;;;14.90;;
76475;SDS011;65308;50.078;14.854;2023-08-17T09:17:37;17.58;;;14.05;;
76475;SDS011;65308;50.078;14.854;2023-08-17T09:20:04;13.35;;;12.15;;
76475;SDS011;65308;50.078;14.854;2023-08-17T09:22:37;14.90;;;13.60;;
76475;SDS011;65308;50.078;14.854;2023-08-17T09:25:06;16.50;;;15.00;;
76475;SDS011;65308;50.078;14.854;2023-08-17T09:27:33;16.05;;;14.68;;
76475;SDS011;65308;50.078;14.854;2023-08-17T09:30:03;13.90;;;12.70;;
76475;SDS011;65308;50.078;14.854;2023-08-17T09:32:32;13.38;;;12.32;;
76475;SDS011;65308;50.078;14.854;2023-08-17T09:35:00;12.95;;;11.73;;
76475;SDS011;65308;50.078;14.854;2023-08-17T09:37:27;13.52;;;12.23;;
76475;SDS011;65308;50.078;14.854;2023-08-17T09:39:55;12.13;;;11.02;;
76475;SDS011;65308;50.078;14.854;2023-08-17T09:42:22;35.03;;;13.43;;
76475;SDS011;65308;50.078;14.854;2023-08-17T09:44:50;12.35;;;11.15;;
76475;SDS011;65308;50.078;14.854;2023-08-17T09:47:17;13.48;;;12.27;;
76475;SDS011;65308;50.078;14.854;2023-08-17T09:49:47;12.20;;;11.07;;
76475;SDS011;65308;50.078;14.854;2023-08-17T09:52:14;13.43;;;12.23;;
76475;SDS011;65308;50.078;14.854;2023-08-17T09:54:41;13.88;;;12.15;;
76475;SDS011;65308;50.078;14.854;2023-08-17T09:59:36;14.02;;;11.65;;
76475;SDS011;65308;50.078;14.854;2023-08-17T10:02:03;13.65;;;11.52;;
76475;SDS011;65308;50.078;14.854;2023-08-17T10:04:34;11.73;;;10.63;;
76475;SDS011;65308;50.078;14.854;2023-08-17T10:07:03;12.30;;;10.82;;
76475;SDS011;65308;50.078;14.854;2023-08-17T10:09:31;11.77;;;10.68;;
76475;SDS011;65308;50.078;14.854;2023-08-17T10:12:06;12.85;;;11.75;;
76475;SDS011;65308;50.078;14.854;2023-08-17T10:14:42;11.10;;;10.00;;
76475;SDS011;65308;50.078;14.854;2023-08-17T10:17:17;11.63;;;10.38;;
76475;SDS011;65308;50.078;14.854;2023-08-17T10:22:18;11.27;;;10.10;;
76475;SDS011;65308;50.078;14.854;2023-08-17T10:24:49;11.88;;;10.75;;
76475;SDS011;65308;50.078;14.854;2023-08-17T10:27:20;11.75;;;10.57;;
76475;SDS011;65308;50.078;14.854;2023-08-17T10:29:47;12.45;;;11.27;;
76475;SDS011;65308;50.078;14.854;2023-08-17T10:32:17;10.65;;;9.65;;
76475;SDS011;65308;50.078;14.854;2023-08-17T10:37:11;10.65;;;9.65;;
76475;SDS011;65308;50.078;14.854;2023-08-17T10:39:42;12.00;;;10.80;;
76475;SDS011;65308;50.078;14.854;2023-08-17T10:42:11;12.50;;;11.15;;
76475;SDS011;65308;50.078;14.854;2023-08-17T10:44:40;11.75;;;10.63;;
76475;SDS011;65308;50.078;14.854;2023-08-17T10:47:20;12.75;;;11.48;;
76475;SDS011;65308;50.078;14.854;2023-08-17T10:49:48;11.85;;;10.57;;
76475;SDS011;65308;50.078;14.854;2023-08-17T10:52:18;12.75;;;10.82;;
76475;SDS011;65308;50.078;14.854;2023-08-17T10:54:53;11.38;;;10.18;;
76475;SDS011;65308;50.078;14.854;2023-08-17T10:57:33;15.30;;;10.82;;
76475;SDS011;65308;50.078;14.854;2023-08-17T11:00:13;11.35;;;10.15;;
76475;SDS011;65308;50.078;14.854;2023-08-17T11:02:44;12.10;;;10.98;;
76475;SDS011;65308;50.078;14.854;2023-08-17T11:05:22;11.85;;;10.70;;
76475;SDS011;65308;50.078;14.854;2023-08-17T11:08:00;12.45;;;10.65;;
76475;SDS011;65308;50.078;14.854;2023-08-17T11:10:28;12.23;;;10.93;;
76475;SDS011;65308;50.078;14.854;2023-08-17T11:12:56;11.70;;;10.50;;
76475;SDS011;65308;50.078;14.854;2023-08-17T11:15:26;12.45;;;9.77;;
76475;SDS011;65308;50.078;14.854;2023-08-17T11:18:02;10.98;;;9.88;;
76475;SDS011;65308;50.078;14.854;2023-08-17T11:20:30;11.25;;;9.05;;
76475;SDS011;65308;50.078;14.854;2023-08-17T11:22:57;10.88;;;9.77;;
76475;SDS011;65308;50.078;14.854;2023-08-17T11:25:24;10.88;;;9.68;;
76475;SDS011;65308;50.078;14.854;2023-08-17T11:27:52;10.77;;;9.75;;
76475;SDS011;65308;50.078;14.854;2023-08-17T11:30:19;11.20;;;10.10;;
76475;SDS011;65308;50.078;14.854;2023-08-17T11:32:48;12.15;;;9.75;;
76475;SDS011;65308;50.078;14.854;2023-08-17T11:35:16;13.70;;;11.65;;
76475;SDS011;65308;50.078;14.854;2023-08-17T11:37:43;10.38;;;9.38;;
76475;SDS011;65308;50.078;14.854;2023-08-17T11:40:10;11.38;;;9.52;;
76475;SDS011;65308;50.078;14.854;2023-08-17T11:42:37;12.63;;;10.23;;
76475;SDS011;65308;50.078;14.854;2023-08-17T11:45:04;11.77;;;9.60;;
76475;SDS011;65308;50.078;14.854;2023-08-17T11:47:32;12.05;;;10.48;;
76475;SDS011;65308;50.078;14.854;2023-08-17T11:50:01;11.68;;;10.48;;
76475;SDS011;65308;50.078;14.854;2023-08-17T11:52:29;12.00;;;10.77;;
76475;SDS011;65308;50.078;14.854;2023-08-17T11:54:57;12.48;;;10.10;;
76475;SDS011;65308;50.078;14.854;2023-08-17T11:57:24;11.43;;;10.32;;
76475;SDS011;65308;50.078;14.854;2023-08-17T11:59:52;11.35;;;9.75;;
76475;SDS011;65308;50.078;14.854;2023-08-17T12:02:21;11.30;;;10.10;;
76475;SDS011;65308;50.078;14.854;2023-08-17T12:04:49;15.15;;;9.82;;
76475;SDS011;65308;50.078;14.854;2023-08-17T12:07:18;11.73;;;9.95;;
76475;SDS011;65308;50.078;14.854;2023-08-17T12:09:45;12.90;;;10.10;;
76475;SDS011;65308;50.078;14.854;2023-08-17T12:12:12;13.57;;;9.40;;
76475;SDS011;65308;50.078;14.854;2023-08-17T12:14:41;12.55;;;9.55;;
76475;SDS011;65308;50.078;14.854;2023-08-17T12:17:13;10.38;;;9.05;;
76475;SDS011;65308;50.078;14.854;2023-08-17T12:19:41;9.75;;;8.85;;
76475;SDS011;65308;50.078;14.854;2023-08-17T12:22:08;9.05;;;7.80;;
76475;SDS011;65308;50.078;14.854;2023-08-17T12:27:04;9.30;;;8.05;;
76475;SDS011;65308;50.078;14.854;2023-08-17T12:29:31;9.18;;;7.90;;
76475;SDS011;65308;50.078;14.854;2023-08-17T12:31:58;9.15;;;8.15;;
76475;SDS011;65308;50.078;14.854;2023-08-17T12:34:25;9.48;;;7.68;;
76475;SDS011;65308;50.078;14.854;2023-08-17T12:36:52;8.60;;;7.80;;
76475;SDS011;65308;50.078;14.854;2023-08-17T12:39:19;10.18;;;7.90;;
76475;SDS011;65308;50.078;14.854;2023-08-17T12:41:47;13.57;;;8.40;;
76475;SDS011;65308;50.078;14.854;2023-08-17T12:44:14;8.63;;;7.78;;
76475;SDS011;65308;50.078;14.854;2023-08-17T12:46:40;9.25;;;7.20;;
76475;SDS011;65308;50.078;14.854;2023-08-17T12:49:07;8.50;;;7.60;;
76475;SDS011;65308;50.078;14.854;2023-08-17T12:51:34;8.98;;;8.18;;
76475;SDS011;65308;50.078;14.854;2023-08-17T12:54:00;8.50;;;7.65;;
76475;SDS011;65308;50.078;14.854;2023-08-17T12:56:27;9.13;;;7.47;;
76475;SDS011;65308;50.078;14.854;2023-08-17T12:58:55;7.93;;;6.70;;
76475;SDS011;65308;50.078;14.854;2023-08-17T13:01:22;8.65;;;7.78;;
76475;SDS011;65308;50.078;14.854;2023-08-17T13:03:49;8.43;;;7.63;;
76475;SDS011;65308;50.078;14.854;2023-08-17T13:06:15;8.32;;;7.30;;
76475;SDS011;65308;50.078;14.854;2023-08-17T13:08:42;9.20;;;8.30;;
76475;SDS011;65308;50.078;14.854;2023-08-17T13:11:10;31.88;;;8.00;;
76475;SDS011;65308;50.078;14.854;2023-08-17T13:13:37;10.38;;;6.90;;
76475;SDS011;65308;50.078;14.854;2023-08-17T13:16:05;8.38;;;6.55;;
76475;SDS011;65308;50.078;14.854;2023-08-17T13:18:31;8.88;;;6.65;;
76475;SDS011;65308;50.078;14.854;2023-08-17T13:20:58;11.02;;;7.35;;
76475;SDS011;65308;50.078;14.854;2023-08-17T13:23:25;8.65;;;7.07;;
76475;SDS011;65308;50.078;14.854;2023-08-17T13:25:52;9.55;;;6.70;;
76475;SDS011;65308;50.078;14.854;2023-08-17T13:28:18;8.15;;;6.80;;
76475;SDS011;65308;50.078;14.854;2023-08-17T13:30:46;13.20;;;7.10;;
76475;SDS011;65308;50.078;14.854;2023-08-17T13:35:41;9.27;;;7.45;;
76475;SDS011;65308;50.078;14.854;2023-08-17T13:38:08;9.30;;;7.95;;
76475;SDS011;65308;50.078;14.854;2023-08-17T13:40:35;9.20;;;7.28;;
76475;SDS011;65308;50.078;14.854;2023-08-17T13:43:03;9.43;;;8.05;;
76475;SDS011;65308;50.078;14.854;2023-08-17T13:45:37;11.68;;;8.27;;
76475;SDS011;65308;50.078;14.854;2023-08-17T13:48:04;9.40;;;8.05;;
76475;SDS011;65308;50.078;14.854;2023-08-17T13:50:33;12.65;;;7.63;;
76475;SDS011;65308;50.078;14.854;2023-08-17T13:53:00;17.27;;;8.25;;
76475;SDS011;65308;50.078;14.854;2023-08-17T13:55:27;8.05;;;6.55;;
76475;SDS011;65308;50.078;14.854;2023-08-17T13:57:54;7.88;;;6.63;;
76475;SDS011;65308;50.078;14.854;2023-08-17T14:02:48;9.23;;;6.93;;
76475;SDS011;65308;50.078;14.854;2023-08-17T14:05:19;8.18;;;6.70;;
76475;SDS011;65308;50.078;14.854;2023-08-17T14:07:48;10.93;;;7.70;;
76475;SDS011;65308;50.078;14.854;2023-08-17T14:10:14;10.68;;;7.82;;
76475;SDS011;65308;50.078;14.854;2023-08-17T14:12:41;14.73;;;8.60;;
76475;SDS011;65308;50.078;14.854;2023-08-17T14:15:08;11.77;;;8.63;;
76475;SDS011;65308;50.078;14.854;2023-08-17T14:17:35;8.38;;;7.25;;
76475;SDS011;65308;50.078;14.854;2023-08-17T14:20:02;7.75;;;6.78;;
76475;SDS011;65308;50.078;14.854;2023-08-17T14:22:29;8.70;;;7.03;;
76475;SDS011;65308;50.078;14.854;2023-08-17T14:24:57;7.60;;;5.75;;
76475;SDS011;65308;50.078;14.854;2023-08-17T14:27:24;7.88;;;4.78;;
76475;SDS011;65308;50.078;14.854;2023-08-17T14:29:51;6.95;;;5.03;;
76475;SDS011;65308;50.078;14.854;2023-08-17T14:32:17;6.03;;;4.45;;
76475;SDS011;65308;50.078;14.854;2023-08-17T14:34:44;5.68;;;5.07;;
76475;SDS011;65308;50.078;14.854;2023-08-17T14:37:11;6.55;;;5.70;;
76475;SDS011;65308;50.078;14.854;2023-08-17T14:39:37;9.68;;;6.72;;
76475;SDS011;65308;50.078;14.854;2023-08-17T14:42:05;7.10;;;5.95;;
76475;SDS011;65308;50.078;14.854;2023-08-17T14:44:32;8.00;;;6.03;;
76475;SDS011;65308;50.078;14.854;2023-08-17T14:46:59;6.97;;;5.85;;
76475;SDS011;65308;50.078;14.854;2023-08-17T14:49:27;6.97;;;5.70;;
76475;SDS011;65308;50.078;14.854;2023-08-17T14:51:55;7.32;;;5.47;;
76475;SDS011;65308;50.078;14.854;2023-08-17T14:54:22;7.32;;;5.25;;